createdAt,value
2018-09-15T00:00:49.393Z,7.56
2018-09-15T00:06:50.117Z,8.04
2018-09-15T00:12:50.878Z,7.74
2018-09-15T00:16:51.761Z,7.43
2018-09-15T00:22:52.603Z,8.04
2018-09-15T00:26:53.571Z,8.19
2018-09-15T00:28:54.325Z,7.81
2018-09-15T00:32:55.336Z,7.77
2018-09-15T00:38:56.153Z,8.13
2018-09-15T00:42:56.671Z,7.8
2018-09-15T00:53:02.943Z,8.68
2018-09-15T00:53:03.230Z,9.04
2018-09-15T00:55:04.187Z,8.5
2018-09-15T00:59:04.562Z,8.53
2018-09-15T01:05:05.302Z,8.8
2018-09-15T01:09:06.011Z,8.19
2018-09-15T01:15:07.166Z,8.09
2018-09-15T01:21:08.034Z,8.76
2018-09-15T01:25:08.648Z,7.81
2018-09-15T01:31:09.438Z,8.05
2018-09-15T01:35:10.317Z,8.36
2018-09-15T01:37:11.081Z,8.2
2018-09-15T01:41:11.809Z,8
2018-09-15T01:47:12.614Z,9.22
2018-09-15T01:51:13.375Z,7.94
2018-09-15T01:57:14.174Z,8.54
2018-09-15T02:01:14.891Z,8.2
2018-09-15T02:03:15.529Z,8.54
2018-09-15T02:07:16.434Z,7.99
2018-09-15T02:13:17.083Z,7.96
2018-09-15T02:17:18.009Z,8.08
2018-09-15T02:23:18.780Z,7.89
2018-09-15T02:29:19.541Z,8.31
2018-09-15T02:33:20.336Z,7.48
2018-09-15T02:39:21.167Z,8.49
2018-09-15T02:43:21.925Z,8.19
2018-09-15T02:45:22.856Z,8.27
2018-09-15T02:49:23.538Z,8.45
2018-09-15T02:55:24.292Z,8.87
2018-09-15T02:59:25.244Z,8.39
2018-09-15T03:05:26.167Z,7.69
2018-09-15T03:11:26.941Z,8
2018-09-15T03:15:28.249Z,7.51
2018-09-15T03:21:28.902Z,8
2018-09-15T03:25:29.689Z,9.47
2018-09-15T03:31:30.517Z,8.1
2018-09-15T03:37:31.468Z,8.01
2018-09-15T03:41:32.312Z,7.66
2018-09-15T03:47:33.055Z,8.2
2018-09-15T03:51:33.932Z,7.84
2018-09-15T03:53:34.685Z,7.96
2018-09-15T03:57:35.432Z,7.88
2018-09-15T04:03:36.248Z,7.75
2018-09-15T04:07:37.002Z,7.48
2018-09-15T04:13:37.758Z,8.51
2018-09-15T04:19:38.504Z,8.04
2018-09-15T04:23:39.153Z,7.89
2018-09-15T04:29:39.965Z,8.35
2018-09-15T04:33:40.912Z,8.22
2018-09-15T04:35:41.559Z,9.99
2018-09-15T04:39:42.450Z,11.34
2018-09-15T04:45:43.231Z,37.17
2018-09-15T04:49:44.125Z,29.79
2018-09-15T04:55:44.825Z,16.13
2018-09-15T04:59:45.855Z,15.38
2018-09-15T05:01:46.584Z,36.21
2018-09-15T05:05:47.371Z,47.53
2018-09-15T05:11:48.084Z,24.75
2018-09-15T05:15:48.903Z,24.39
2018-09-15T05:21:49.776Z,30.88
2018-09-15T05:27:50.509Z,16.55
2018-09-15T05:31:51.218Z,15.35
2018-09-15T05:37:52.051Z,14.61
2018-09-15T05:41:52.784Z,14.44
2018-09-15T05:43:53.573Z,13.53
2018-09-15T05:47:54.240Z,12.79
2018-09-15T05:53:55.053Z,13.01
2018-09-15T05:57:55.792Z,11.84
2018-09-15T06:03:56.647Z,11.22
2018-09-15T06:09:57.329Z,10.9
2018-09-15T06:13:58.039Z,10.01
2018-09-15T06:19:58.745Z,10.61
2018-09-15T06:23:59.476Z,9.61
2018-09-15T06:26:00.280Z,10.86
2018-09-15T06:30:01.001Z,9.78
2018-09-15T06:36:01.787Z,10.12
2018-09-15T06:40:02.835Z,9.47
2018-09-15T06:46:03.340Z,10.72
2018-09-15T06:50:04.178Z,10.53
2018-09-15T06:52:04.897Z,13
2018-09-15T06:56:05.526Z,14.17
2018-09-15T07:02:06.249Z,14.28
2018-09-15T07:06:07.067Z,13.53
2018-09-15T07:12:07.830Z,13.19
2018-09-15T07:18:08.601Z,12.37
2018-09-15T07:22:09.309Z,12.61
2018-09-15T07:28:10.197Z,12.77
2018-09-15T07:32:10.906Z,12.89
2018-09-15T07:34:11.594Z,14.15
2018-09-15T07:38:12.346Z,14.59
2018-09-15T07:44:13.157Z,15.86
2018-09-15T07:48:13.884Z,15.99
2018-09-15T07:54:14.725Z,15.63
2018-09-15T08:00:15.902Z,16.16
2018-09-15T08:04:16.732Z,15.11
2018-09-15T08:10:17.694Z,15.03
2018-09-15T08:14:18.509Z,14.56
2018-09-15T08:20:19.300Z,13.58
2018-09-15T08:26:20.366Z,13.66
2018-09-15T08:30:21.448Z,12.71
2018-09-15T08:36:22.241Z,13.6
2018-09-15T08:40:23.002Z,12.64
2018-09-15T08:42:23.701Z,12.86
2018-09-15T08:46:24.544Z,12.9
2018-09-15T08:52:25.841Z,12.66
2018-09-15T08:56:26.573Z,12.27
2018-09-15T09:02:26.776Z,11.16
2018-09-15T09:08:28.012Z,12.34
2018-09-15T09:12:28.257Z,11.57
2018-09-15T09:18:29.494Z,10.92
2018-09-15T09:22:30.367Z,10.5
2018-09-15T09:24:31.187Z,11.29
2018-09-15T09:28:31.946Z,10.9
2018-09-15T09:34:32.373Z,11.09
2018-09-15T09:38:33.425Z,10.56
2018-09-15T09:44:34.056Z,10.42
2018-09-15T09:48:34.639Z,10.16
2018-09-15T09:50:35.797Z,9.88
2018-09-15T09:54:36.501Z,9.86
2018-09-15T10:00:37.010Z,11.73
2018-09-15T10:04:38.215Z,10.23
2018-09-15T10:10:38.624Z,9.9
2018-09-15T10:16:39.368Z,10.5
2018-09-15T10:20:40.272Z,9.58
2018-09-15T10:26:41.029Z,9.59
2018-09-15T10:30:41.877Z,9.91
2018-09-15T10:32:42.589Z,9.64
2018-09-15T10:36:43.385Z,9.46
2018-09-15T10:42:44.159Z,10.43
2018-09-15T10:46:44.926Z,9.73
2018-09-15T10:52:45.764Z,10.05
2018-09-15T10:58:46.518Z,10.37
2018-09-15T11:02:47.374Z,9.72
2018-09-15T11:08:48.168Z,9.87
2018-09-15T11:12:48.898Z,10.22
2018-09-15T11:14:49.579Z,10.37
2018-09-15T11:18:50.363Z,9.28
2018-09-15T11:24:51.160Z,10.39
2018-09-15T11:28:51.985Z,9.53
2018-09-15T11:34:52.679Z,10.21
2018-09-15T11:38:53.416Z,9.8
2018-09-15T11:40:54.080Z,10.49
2018-09-15T11:44:54.826Z,9.95
2018-09-15T11:50:55.628Z,10.05
2018-09-15T11:54:56.387Z,9.88
2018-09-15T12:00:57.137Z,8.9
2018-09-15T12:06:57.991Z,9.6
2018-09-15T12:10:58.788Z,8.75
2018-09-15T12:16:59.563Z,9.66
2018-09-15T12:21:00.376Z,9.86
2018-09-15T12:23:01.035Z,9.66
2018-09-15T12:27:01.921Z,9.24
2018-09-15T12:33:02.576Z,10.1
2018-09-15T12:37:03.404Z,9.69
2018-09-15T12:43:04.161Z,9.65
2018-09-15T12:49:08.964Z,8.69
2018-09-15T12:53:09.880Z,9.27
2018-09-15T12:59:10.676Z,11.94
2018-09-15T13:03:07.344Z,9.84
2018-09-15T13:05:08.115Z,9.64
2018-09-15T13:09:12.952Z,9.2
2018-09-15T13:15:14.400Z,11.39
2018-09-15T13:19:14.847Z,10.27
2018-09-15T13:25:11.677Z,10.68
2018-09-15T13:31:12.400Z,8.94
2018-09-15T13:35:17.214Z,9.48
2018-09-15T13:41:18.046Z,8.79
2018-09-15T13:45:19.468Z,8.36
2018-09-15T13:51:15.674Z,8.21
2018-09-15T13:57:20.513Z,7.89
2018-09-15T14:01:21.217Z,7.85
2018-09-15T14:07:21.968Z,7.53
2018-09-15T14:11:22.632Z,7.25
2018-09-15T14:13:19.388Z,7.3
2018-09-15T14:17:24.207Z,7.21
2018-09-15T14:23:25.080Z,7.81
2018-09-15T14:27:25.766Z,7.24
2018-09-15T14:33:22.510Z,7.24
2018-09-15T14:39:27.401Z,8.21
2018-09-15T14:43:28.188Z,7.85
2018-09-15T14:49:29.017Z,7.76
2018-09-15T14:53:29.986Z,7.43
2018-09-15T14:55:30.820Z,8.45
2018-09-15T14:59:31.474Z,8.37
2018-09-15T15:05:32.158Z,7.76
2018-09-15T15:09:33.068Z,7.94
2018-09-15T15:15:30.435Z,8.03
2018-09-15T15:21:35.353Z,8.34
2018-09-15T15:25:32.124Z,7.68
2018-09-15T15:31:37.101Z,8.36
2018-09-15T15:35:33.866Z,7.55
2018-09-15T15:41:34.875Z,8.15
2018-09-15T15:47:39.776Z,8.88
2018-09-15T15:51:40.554Z,8.37
2018-09-15T15:57:37.568Z,8.29
2018-09-15T16:01:38.354Z,8.31
2018-09-15T16:03:38.985Z,9.25
2018-09-15T16:07:43.751Z,8.55
2018-09-15T16:13:40.448Z,9.03
2018-09-15T16:17:41.130Z,9.16
2018-09-15T16:23:41.892Z,8.95
2018-09-15T16:23:45.956Z,8.95
2018-09-15T16:29:46.702Z,8.71
2018-09-15T16:33:43.425Z,10
2018-09-15T16:39:44.172Z,9.74
2018-09-15T16:43:44.927Z,10.33
2018-09-15T16:45:45.619Z,10
2018-09-15T16:49:50.496Z,9.66
2018-09-15T16:55:52.126Z,9.93
2018-09-15T16:59:47.906Z,9.77
2018-09-15T17:05:52.879Z,9.87
2018-09-15T17:11:49.551Z,10.68
2018-09-15T17:15:54.363Z,10.17
2018-09-15T17:21:59.136Z,10.37
2018-09-15T17:25:55.775Z,10.23
2018-09-15T17:28:00.529Z,11.19
2018-09-15T17:31:53.351Z,10.9
2018-09-15T17:37:54.131Z,10.88
2018-09-15T17:41:54.863Z,10.28
2018-09-15T17:47:55.647Z,10.52
2018-09-15T17:51:56.428Z,9.98
2018-09-15T17:53:57.134Z,10.16
2018-09-15T17:57:57.971Z,10.82
2018-09-15T18:03:58.702Z,9.43
2018-09-15T18:07:59.889Z,9.26
2018-09-15T18:14:00.159Z,8.56
2018-09-15T18:20:00.943Z,9.38
2018-09-15T18:24:01.718Z,10.44
2018-09-15T18:30:02.585Z,9.11
2018-09-15T18:34:03.342Z,8.44
2018-09-15T18:36:07.256Z,8.99
2018-09-15T18:40:04.835Z,8.67
2018-09-15T18:46:09.665Z,8.35
2018-09-15T18:50:06.336Z,8.61
2018-09-15T18:56:11.331Z,8.18
2018-09-15T19:02:08.127Z,8.24
2018-09-15T19:06:08.968Z,8
2018-09-15T19:12:09.643Z,8.24
2018-09-15T19:16:10.484Z,8.45
2018-09-15T19:18:11.178Z,8.68
2018-09-15T19:22:12.015Z,8.58
2018-09-15T19:28:12.776Z,8.13
2018-09-15T19:32:13.526Z,8.37
2018-09-15T19:38:14.331Z,13.8
2018-09-15T19:42:15.171Z,13.52
2018-09-15T19:44:15.921Z,11.54
2018-09-15T19:48:16.730Z,11.9
2018-09-15T19:54:17.622Z,10.29
2018-09-15T19:58:18.339Z,9.9
2018-09-15T20:04:19.248Z,9.47
2018-09-15T20:10:20.023Z,11.66
2018-09-15T20:14:20.853Z,12.16
2018-09-15T20:20:21.579Z,10.46
2018-09-15T20:24:22.441Z,10.32
2018-09-15T20:26:23.058Z,10.79
2018-09-15T20:30:24.334Z,10.06
2018-09-15T20:36:25.145Z,10.89
2018-09-15T20:40:25.927Z,11.2
2018-09-15T20:46:26.712Z,15.9
2018-09-15T20:52:27.486Z,12.44
2018-09-15T20:56:28.229Z,12.45
2018-09-15T21:02:29.049Z,14.92
2018-09-15T21:06:29.854Z,13.81
2018-09-15T21:08:30.546Z,13.18
2018-09-15T21:12:31.354Z,12.25
2018-09-15T21:18:32.305Z,12.33
2018-09-15T21:22:33.265Z,11.82
2018-09-15T21:28:34.054Z,12.76
2018-09-15T21:32:34.773Z,12.31
2018-09-15T21:34:35.548Z,11.4
2018-09-15T21:38:36.358Z,10.95
2018-09-15T21:44:37.343Z,11.92
2018-09-15T21:48:38.772Z,11.69
2018-09-15T21:54:38.918Z,11.74
2018-09-15T22:00:39.644Z,12.74
2018-09-15T22:04:40.567Z,12.4
2018-09-15T22:10:41.472Z,11.6
2018-09-15T22:14:42.177Z,11.59
2018-09-15T22:16:42.965Z,11.55
2018-09-15T22:20:43.592Z,11.42
2018-09-15T22:26:44.301Z,10.79
2018-09-15T22:30:45.246Z,11.06
2018-09-15T22:36:45.973Z,11.11
2018-09-15T22:46:48.556Z,10.56
2018-09-15T22:46:52.564Z,10.25
2018-09-15T22:52:49.321Z,11.63
2018-09-15T22:56:52.734Z,10.39
2018-09-15T23:02:54.894Z,10.75
2018-09-15T23:08:53.494Z,11.87
2018-09-15T23:12:52.403Z,12.14
2018-09-15T23:18:54.969Z,10.82
2018-09-15T23:22:54.210Z,10.62
2018-09-15T23:24:56.718Z,12.17
2018-09-15T23:28:56.979Z,11.56
2018-09-15T23:34:58.330Z,12.03
2018-09-15T23:38:57.284Z,11.4
2018-09-15T23:44:58.033Z,12.36
2018-09-15T23:50:58.770Z,11.88
2018-09-15T23:54:59.616Z,12.14
